createdAt,value
2022-08-11T00:02:01.937Z,20.11
2022-08-11T00:05:08.286Z,20.02
2022-08-11T00:08:11.962Z,19.93
2022-08-11T00:11:17.120Z,19.83
2022-08-11T00:14:22.211Z,19.81
2022-08-11T00:17:31.971Z,19.78
2022-08-11T00:20:39.619Z,19.73
2022-08-11T00:23:45.980Z,19.67
2022-08-11T00:26:54.532Z,19.67
2022-08-11T00:29:58.265Z,19.65
2022-08-11T00:33:00.809Z,19.66
2022-08-11T00:36:06.728Z,19.65
2022-08-11T00:39:11.117Z,19.73
2022-08-11T00:42:26.052Z,19.76
2022-08-11T00:45:46.162Z,19.80
2022-08-11T00:49:18.152Z,19.79
2022-08-11T00:52:39.448Z,19.68
2022-08-11T00:55:57.736Z,19.70
2022-08-11T00:59:35.497Z,19.70
2022-08-11T01:03:04.286Z,19.80
2022-08-11T01:06:41.848Z,19.61
2022-08-11T01:10:05.129Z,19.52
2022-08-11T01:13:21.850Z,19.46
2022-08-11T01:17:09.686Z,19.28
2022-08-11T01:20:48.397Z,19.27
2022-08-11T01:24:26.380Z,19.33
2022-08-11T01:28:15.326Z,19.29
2022-08-11T01:31:34.735Z,19.17
2022-08-11T01:34:59.318Z,18.97
2022-08-11T01:38:20.774Z,18.89
2022-08-11T01:42:14.893Z,18.77
2022-08-11T01:45:43.050Z,18.76
2022-08-11T01:49:02.278Z,18.63
2022-08-11T01:52:34.858Z,18.60
2022-08-11T01:55:49.894Z,18.80
2022-08-11T01:58:56.063Z,18.76
2022-08-11T02:02:05.006Z,18.67
2022-08-11T02:05:27.429Z,18.71
2022-08-11T02:08:54.994Z,18.77
2022-08-11T02:12:28.091Z,18.97
2022-08-11T02:15:39.286Z,19.06
2022-08-11T02:19:07.930Z,19.32
2022-08-11T02:22:49.170Z,19.28
2022-08-11T02:26:13.307Z,19.40
2022-08-11T02:29:21.867Z,19.34
2022-08-11T02:32:50.645Z,19.47
2022-08-11T02:36:12.601Z,19.45
2022-08-11T02:39:20.265Z,19.31
2022-08-11T02:42:35.312Z,19.24
2022-08-11T02:45:48.553Z,19.14
2022-08-11T02:49:18.061Z,19.07
2022-08-11T02:52:59.681Z,19.06
2022-08-11T02:56:27.357Z,18.93
2022-08-11T02:59:51.904Z,18.84
2022-08-11T03:03:51.303Z,18.85
2022-08-11T03:07:38.495Z,18.82
2022-08-11T03:11:06.777Z,18.84
2022-08-11T03:14:54.762Z,18.84
2022-08-11T03:18:16.487Z,18.83
2022-08-11T03:22:01.828Z,18.89
2022-08-11T03:24:55.814Z,18.84
2022-08-11T03:28:24.602Z,18.80
2022-08-11T03:31:37.125Z,18.73
2022-08-11T03:34:45.435Z,18.74
2022-08-11T03:38:06.605Z,18.70
2022-08-11T03:42:01.855Z,18.73
2022-08-11T03:45:25.596Z,18.68
2022-08-11T03:48:47.846Z,18.57
2022-08-11T03:52:01.850Z,18.56
2022-08-11T03:55:15.923Z,18.63
2022-08-11T03:58:56.029Z,18.65
2022-08-11T04:02:20.971Z,18.61
2022-08-11T04:06:18.040Z,18.66
2022-08-11T04:09:32.430Z,18.60
2022-08-11T04:13:08.906Z,18.60
2022-08-11T04:16:41.513Z,18.62
2022-08-11T04:19:54.530Z,18.57
2022-08-11T04:23:06.309Z,18.61
2022-08-11T04:26:34.336Z,18.66
2022-08-11T04:30:03.151Z,18.71
2022-08-11T04:33:37.685Z,18.73
2022-08-11T04:37:34.984Z,18.83
2022-08-11T04:41:18.099Z,18.80
2022-08-11T04:44:38.715Z,18.95
2022-08-11T04:48:37.987Z,19.12
2022-08-11T04:52:20.532Z,19.31
2022-08-11T04:56:15.525Z,19.40
2022-08-11T05:00:01.799Z,19.47
2022-08-11T05:03:22.236Z,19.33
2022-08-11T05:06:58.485Z,19.46
2022-08-11T05:10:40.055Z,19.43
2022-08-11T05:14:06.860Z,19.46
2022-08-11T05:17:53.782Z,19.46
2022-08-11T05:21:16.675Z,19.55
2022-08-11T05:24:45.220Z,19.70
2022-08-11T05:28:18.303Z,19.80
2022-08-11T05:31:45.394Z,19.92
2022-08-11T05:34:54.032Z,20.00
2022-08-11T05:38:21.456Z,20.19
2022-08-11T05:41:45.851Z,20.32
2022-08-11T05:45:15.708Z,20.48
2022-08-11T05:48:37.526Z,20.45
2022-08-11T05:52:05.577Z,20.37
2022-08-11T05:55:34.919Z,20.49
2022-08-11T05:58:43.237Z,20.59
2022-08-11T06:01:48.066Z,20.71
2022-08-11T06:04:58.719Z,20.94
2022-08-11T06:08:02.358Z,21.27
2022-08-11T06:11:06.290Z,21.40
2022-08-11T06:14:13.362Z,21.09
2022-08-11T06:17:23.236Z,21.26
2022-08-11T06:20:26.498Z,21.50
2022-08-11T06:23:36.086Z,21.60
2022-08-11T06:27:01.755Z,21.46
2022-08-11T06:30:17.154Z,21.45
2022-08-11T06:33:31.528Z,21.72
2022-08-11T06:36:54.337Z,22.09
2022-08-11T06:40:07.343Z,22.03
2022-08-11T06:43:19.794Z,22.60
2022-08-11T06:46:33.775Z,22.64
2022-08-11T06:50:06.354Z,23.04
2022-08-11T06:53:10.581Z,22.96
2022-08-11T06:56:42.099Z,22.71
2022-08-11T07:00:04.426Z,23.29
2022-08-11T07:03:11.542Z,23.09
2022-08-11T07:07:19.090Z,23.44
2022-08-11T07:11:03.899Z,23.47
2022-08-11T07:14:27.260Z,23.83
2022-08-11T07:17:35.157Z,23.76
2022-08-11T07:21:02.081Z,24.80
2022-08-11T07:24:34.595Z,26.19
2022-08-11T07:28:19.410Z,25.94
2022-08-11T07:31:46.298Z,25.34
2022-08-11T07:34:55.570Z,24.89
2022-08-11T07:38:07.060Z,25.24
2022-08-11T07:41:12.634Z,26.03
2022-08-11T07:44:17.123Z,27.32
2022-08-11T07:47:39.241Z,26.95
2022-08-11T07:51:03.795Z,27.35
2022-08-11T07:54:16.900Z,28.48
2022-08-11T07:58:13.772Z,27.82
2022-08-11T08:01:22.317Z,28.80
2022-08-11T08:04:47.353Z,29.43
2022-08-11T08:08:08.657Z,28.98
2022-08-11T08:11:30.734Z,26.78
2022-08-11T08:14:53.196Z,27.66
2022-08-11T08:18:08.981Z,26.44
2022-08-11T08:21:21.854Z,27.24
2022-08-11T08:24:25.700Z,25.61
2022-08-11T08:27:28.601Z,26.48
2022-08-11T08:30:50.713Z,26.25
2022-08-11T08:33:53.690Z,26.92
2022-08-11T08:36:56.819Z,26.66
2022-08-11T08:39:59.885Z,26.30
2022-08-11T08:43:09.152Z,27.76
2022-08-11T08:46:14.180Z,28.99
2022-08-11T08:49:22.683Z,30.48
2022-08-11T08:52:37.173Z,30.19
2022-08-11T08:55:45.562Z,29.01
2022-08-11T08:58:49.495Z,30.09
2022-08-11T09:02:02.781Z,29.46
2022-08-11T09:05:09.093Z,30.81
2022-08-11T09:08:12.812Z,30.01
2022-08-11T09:11:34.982Z,31.96
2022-08-11T09:14:59.633Z,31.40
2022-08-11T09:18:09.372Z,30.42
2022-08-11T09:21:14.813Z,31.56
2022-08-11T09:24:58.014Z,31.64
2022-08-11T09:28:03.110Z,32.80
2022-08-11T09:31:07.023Z,32.65
2022-08-11T09:34:11.341Z,33.61
2022-08-11T09:37:55.178Z,33.58
2022-08-11T09:41:00.425Z,32.53
2022-08-11T09:44:23.505Z,30.04
2022-08-11T09:47:31.649Z,27.89
2022-08-11T09:50:35.854Z,26.67
2022-08-11T09:53:41.709Z,26.44
2022-08-11T09:57:12.416Z,26.79
2022-08-11T10:00:16.568Z,27.00
2022-08-11T10:03:24.958Z,27.74
2022-08-11T10:06:48.613Z,28.85
2022-08-11T10:10:02.479Z,28.09
2022-08-11T10:14:10.054Z,29.22
2022-08-11T10:16:41.734Z,30.08
2022-08-11T10:20:05.506Z,30.95
2022-08-11T10:23:31.170Z,31.02
2022-08-11T10:26:53.656Z,31.90
2022-08-11T10:30:16.327Z,34.26
2022-08-11T10:33:45.746Z,32.47
2022-08-11T10:37:03.827Z,32.59
2022-08-11T10:40:09.068Z,30.90
2022-08-11T10:43:14.496Z,29.20
2022-08-11T10:46:57.162Z,28.63
2022-08-11T10:50:22.411Z,31.41
2022-08-11T10:53:43.846Z,32.88
2022-08-11T10:57:05.686Z,30.59
2022-08-11T11:00:14.308Z,30.80
2022-08-11T11:03:22.943Z,31.53
2022-08-11T11:06:33.590Z,32.78
2022-08-11T11:09:48.913Z,36.85
2022-08-11T11:13:17.803Z,35.37
2022-08-11T11:16:40.882Z,36.27
2022-08-11T11:19:44.975Z,38.98
2022-08-11T11:22:52.387Z,34.97
2022-08-11T11:26:27.492Z,35.52
2022-08-11T11:30:00.073Z,34.22
2022-08-11T11:33:13.392Z,31.18
2022-08-11T11:36:47.462Z,29.79
2022-08-11T11:39:50.688Z,29.98
2022-08-11T11:42:58.487Z,29.21
2022-08-11T11:46:01.875Z,27.55
2022-08-11T11:49:10.720Z,27.02
2022-08-11T11:52:21.174Z,27.67
2022-08-11T11:55:25.827Z,27.67
2022-08-11T11:58:47.403Z,28.05
2022-08-11T12:01:52.690Z,28.42
2022-08-11T12:04:56.362Z,29.05
2022-08-11T12:08:16.029Z,31.75
2022-08-11T12:11:40.377Z,36.36
2022-08-11T12:14:46.062Z,36.14
2022-08-11T12:17:52.795Z,35.98
2022-08-11T12:20:55.876Z,35.80
2022-08-11T12:24:20.308Z,33.93
2022-08-11T12:27:26.487Z,31.57
2022-08-11T12:30:30.194Z,31.20
2022-08-11T12:33:35.151Z,31.15
2022-08-11T12:36:54.496Z,30.74
2022-08-11T12:40:43.756Z,30.38
2022-08-11T12:44:04.371Z,29.74
2022-08-11T12:47:07.789Z,28.67
2022-08-11T12:50:29.879Z,28.13
2022-08-11T12:53:35.094Z,27.60
2022-08-11T12:57:00.002Z,27.95
2022-08-11T13:00:24.680Z,28.52
2022-08-11T13:03:52.380Z,30.16
2022-08-11T13:06:55.264Z,30.72
2022-08-11T13:09:59.234Z,32.16
2022-08-11T13:13:52.553Z,31.12
2022-08-11T13:16:56.699Z,29.27
2022-08-11T13:20:00.613Z,28.37
2022-08-11T13:23:04.124Z,29.35
2022-08-11T13:26:08.871Z,30.25
2022-08-11T13:29:12.827Z,29.51
2022-08-11T13:32:16.418Z,29.06
2022-08-11T13:35:20.355Z,28.32
2022-08-11T13:38:25.287Z,27.96
2022-08-11T13:41:39.334Z,28.13
2022-08-11T13:44:43.825Z,28.31
2022-08-11T13:47:48.320Z,29.62
2022-08-11T13:51:09.688Z,31.26
2022-08-11T13:54:19.581Z,33.48
2022-08-11T13:58:07.516Z,29.91
2022-08-11T14:00:52.373Z,29.11
2022-08-11T14:04:30.515Z,28.52
2022-08-11T14:07:24.894Z,28.02
2022-08-11T14:10:33.128Z,27.90
2022-08-11T14:13:42.208Z,28.81
2022-08-11T14:16:47.872Z,29.16
2022-08-11T14:19:53.555Z,31.42
2022-08-11T14:22:56.551Z,32.52
2022-08-11T14:26:18.883Z,30.84
2022-08-11T14:29:25.352Z,29.50
2022-08-11T14:32:28.390Z,28.79
2022-08-11T14:35:31.441Z,28.74
2022-08-11T14:38:35.545Z,29.27
2022-08-11T14:42:11.894Z,28.82
2022-08-11T14:45:58.487Z,29.09
2022-08-11T14:48:59.930Z,28.41
2022-08-11T14:52:20.845Z,28.78
2022-08-11T14:55:45.778Z,29.15
2022-08-11T14:58:48.690Z,28.74
2022-08-11T15:02:10.545Z,27.40
2022-08-11T15:05:14.273Z,27.43
2022-08-11T15:08:19.057Z,27.38
2022-08-11T15:11:43.718Z,27.28
2022-08-11T15:15:07.023Z,27.16
2022-08-11T15:18:14.259Z,27.62
2022-08-11T15:21:35.940Z,27.11
2022-08-11T15:24:38.682Z,27.29
2022-08-11T15:28:07.065Z,27.18
2022-08-11T15:31:31.437Z,26.90
2022-08-11T15:34:53.007Z,26.89
2022-08-11T15:37:58.349Z,26.85
2022-08-11T15:41:25.332Z,26.78
2022-08-11T15:45:06.717Z,26.80
2022-08-11T15:48:14.377Z,26.78
2022-08-11T15:51:46.585Z,26.70
2022-08-11T15:54:50.717Z,26.41
2022-08-11T15:58:13.986Z,26.16
2022-08-11T16:01:39.057Z,26.02
2022-08-11T16:04:45.562Z,25.80
2022-08-11T16:07:51.022Z,25.71
2022-08-11T16:10:56.686Z,25.68
2022-08-11T16:14:24.646Z,25.59
2022-08-11T16:17:33.096Z,25.54
2022-08-11T16:20:36.908Z,25.44
2022-08-11T16:23:43.158Z,25.47
2022-08-11T16:27:10.281Z,25.44
2022-08-11T16:30:11.689Z,25.42
2022-08-11T16:33:48.485Z,25.43
2022-08-11T16:36:58.264Z,25.54
2022-08-11T16:40:01.442Z,25.44
2022-08-11T16:43:32.292Z,25.38
2022-08-11T16:46:54.942Z,25.44
2022-08-11T16:49:59.648Z,25.44
2022-08-11T16:53:02.797Z,25.29
2022-08-11T16:56:06.457Z,25.23
2022-08-11T16:59:19.552Z,25.22
2022-08-11T17:02:44.202Z,25.19
2022-08-11T17:06:25.123Z,25.19
2022-08-11T17:09:49.480Z,25.02
2022-08-11T17:13:10.532Z,24.84
2022-08-11T17:16:17.487Z,24.59
2022-08-11T17:20:41.419Z,24.39
2022-08-11T17:23:13.028Z,24.12
2022-08-11T17:26:19.875Z,23.49
2022-08-11T17:29:54.438Z,23.38
2022-08-11T17:33:16.624Z,23.05
2022-08-11T17:36:20.485Z,22.90
2022-08-11T17:39:30.252Z,22.79
2022-08-11T17:42:54.085Z,22.76
2022-08-11T17:46:16.148Z,22.72
2022-08-11T17:49:20.467Z,22.55
2022-08-11T17:52:43.864Z,22.44
2022-08-11T17:56:07.534Z,22.39
2022-08-11T17:59:32.463Z,22.30
2022-08-11T18:02:57.157Z,22.27
2022-08-11T18:06:04.568Z,22.25
2022-08-11T18:09:38.857Z,22.17
2022-08-11T18:13:01.672Z,22.10
2022-08-11T18:16:23.210Z,22.05
2022-08-11T18:19:44.586Z,21.91
2022-08-11T18:23:08.422Z,21.82
2022-08-11T18:26:31.252Z,21.77
2022-08-11T18:29:56.358Z,21.71
2022-08-11T18:37:24.759Z,21.79
2022-08-11T18:40:49.280Z,21.77
2022-08-11T18:44:14.638Z,21.70
2022-08-11T18:47:40.945Z,21.60
2022-08-11T18:51:30.343Z,21.51
2022-08-11T18:54:48.867Z,21.50
2022-08-11T18:58:15.395Z,21.49
2022-08-11T19:01:41.032Z,21.46
2022-08-11T19:05:05.364Z,21.38
2022-08-11T19:08:29.330Z,21.36
2022-08-11T19:11:52.752Z,21.30
2022-08-11T19:15:17.193Z,21.26
2022-08-11T19:18:41.218Z,21.23
2022-08-11T19:22:03.718Z,21.22
2022-08-11T19:25:26.877Z,21.20
2022-08-11T19:28:50.374Z,21.18
2022-08-11T19:32:13.466Z,21.29
2022-08-11T19:35:36.166Z,21.34
2022-08-11T19:38:57.776Z,21.34
2022-08-11T19:42:20.558Z,21.30
2022-08-11T19:45:41.969Z,21.31
2022-08-11T19:49:10.981Z,21.30
2022-08-11T19:52:33.564Z,21.31
2022-08-11T19:55:57.630Z,21.24
2022-08-11T19:59:20.243Z,21.16
2022-08-11T20:02:41.836Z,21.09
2022-08-11T20:06:04.490Z,21.00
2022-08-11T20:09:28.514Z,20.94
2022-08-11T20:13:12.495Z,20.91
2022-08-11T20:16:44.184Z,20.81
2022-08-11T20:20:07.795Z,20.79
2022-08-11T20:23:33.449Z,20.72
2022-08-11T20:26:55.846Z,20.64
2022-08-11T20:30:18.776Z,20.59
2022-08-11T20:33:41.802Z,20.55
2022-08-11T20:37:04.891Z,20.51
2022-08-11T20:40:27.442Z,20.47
2022-08-11T20:44:08.380Z,20.43
2022-08-11T20:47:56.168Z,20.51
2022-08-11T20:51:17.912Z,20.38
2022-08-11T20:54:43.840Z,20.27
2022-08-11T20:58:07.398Z,20.17
2022-08-11T21:01:42.136Z,20.10
2022-08-11T21:05:03.339Z,20.13
2022-08-11T21:08:27.069Z,20.11
2022-08-11T21:11:53.559Z,20.11
2022-08-11T21:15:38.645Z,20.04
2022-08-11T21:19:01.337Z,19.99
2022-08-11T21:22:27.785Z,19.89
2022-08-11T21:25:54.274Z,19.79
2022-08-11T21:29:18.563Z,19.83
2022-08-11T21:32:41.548Z,19.76
2022-08-11T21:36:03.558Z,19.74
2022-08-11T21:39:26.355Z,19.71
2022-08-11T21:42:51.185Z,19.76
2022-08-11T21:46:13.952Z,19.73
2022-08-11T21:49:38.985Z,19.69
2022-08-11T21:53:01.699Z,19.62
2022-08-11T21:56:27.356Z,19.63
2022-08-11T22:00:00.153Z,19.69
2022-08-11T22:03:23.638Z,19.76
2022-08-11T22:06:45.779Z,19.80
2022-08-11T22:10:32.015Z,19.85
2022-08-11T22:14:01.239Z,19.67
2022-08-11T22:17:28.694Z,19.59
2022-08-11T22:20:51.004Z,19.51
2022-08-11T22:24:12.530Z,19.44
2022-08-11T22:27:40.901Z,19.46
2022-08-11T22:31:02.008Z,19.35
2022-08-11T22:34:24.915Z,19.32
2022-08-11T22:37:47.950Z,19.33
2022-08-11T22:41:09.824Z,19.35
2022-08-11T22:44:30.772Z,19.30
2022-08-11T22:47:54.536Z,19.29
2022-08-11T22:51:18.267Z,19.25
2022-08-11T22:54:40.536Z,19.21
2022-08-11T22:58:01.945Z,19.20
2022-08-11T23:01:24.010Z,19.19
2022-08-11T23:04:45.946Z,19.13
2022-08-11T23:08:15.863Z,19.12
2022-08-11T23:12:07.959Z,19.12
2022-08-11T23:15:19.582Z,19.07
2022-08-11T23:18:41.565Z,19.03
2022-08-11T23:22:02.917Z,19.00
2022-08-11T23:25:24.223Z,19.03
2022-08-11T23:28:46.692Z,19.06
2022-08-11T23:32:10.027Z,19.05
2022-08-11T23:35:38.959Z,19.05
2022-08-11T23:39:02.111Z,19.02
2022-08-11T23:42:24.354Z,19.02
2022-08-11T23:45:46.014Z,18.95
2022-08-11T23:49:12.050Z,19.01
2022-08-11T23:52:34.998Z,19.00
2022-08-11T23:55:57.048Z,19.03
2022-08-11T23:59:20.708Z,19.03
